createdAt,value
2023-05-19T00:00:34.359Z,741.00
2023-05-19T00:01:34.275Z,735.00
2023-05-19T00:02:34.401Z,742.00
2023-05-19T00:03:34.392Z,741.00
2023-05-19T00:04:34.404Z,738.00
2023-05-19T00:05:34.489Z,737.00
2023-05-19T00:06:34.531Z,740.00
2023-05-19T00:07:34.572Z,744.00
2023-05-19T00:08:34.657Z,736.00
2023-05-19T00:09:34.670Z,740.00
2023-05-19T00:10:34.758Z,736.00
2023-05-19T00:11:34.757Z,736.00
2023-05-19T00:12:34.821Z,733.00
2023-05-19T00:13:34.813Z,727.00
2023-05-19T00:14:34.840Z,734.00
2023-05-19T00:15:34.921Z,737.00
2023-05-19T00:16:35.067Z,740.00
2023-05-19T00:17:34.978Z,737.00
2023-05-19T00:18:35.023Z,740.00
2023-05-19T00:19:34.992Z,743.00
2023-05-19T00:20:35.074Z,750.00
2023-05-19T00:21:34.985Z,747.00
2023-05-19T00:22:34.970Z,749.00
2023-05-19T00:23:35.004Z,752.00
2023-05-19T00:24:35.015Z,756.00
2023-05-19T00:25:35.069Z,755.00
2023-05-19T00:26:35.141Z,760.00
2023-05-19T00:27:35.160Z,755.00
2023-05-19T00:28:35.140Z,746.00
2023-05-19T00:29:35.172Z,747.00
2023-05-19T00:30:35.143Z,742.00
2023-05-19T00:31:35.219Z,746.00
2023-05-19T00:32:35.227Z,742.00
2023-05-19T00:33:35.157Z,735.00
2023-05-19T00:34:35.119Z,735.00
2023-05-19T00:35:35.150Z,742.00
2023-05-19T00:36:35.145Z,744.00
2023-05-19T00:37:35.153Z,742.00
2023-05-19T00:38:35.183Z,737.00
2023-05-19T00:39:35.157Z,750.00
2023-05-19T00:40:35.231Z,738.00
2023-05-19T00:41:35.180Z,740.00
2023-05-19T00:42:35.146Z,749.00
2023-05-19T00:43:35.166Z,765.00
2023-05-19T00:44:35.162Z,761.00
2023-05-19T00:45:35.148Z,770.00
2023-05-19T00:46:35.194Z,762.00
2023-05-19T00:47:35.239Z,765.00
2023-05-19T00:48:35.177Z,777.00
2023-05-19T00:49:35.152Z,768.00
2023-05-19T00:50:35.268Z,772.00
2023-05-19T00:51:35.146Z,776.00
2023-05-19T00:52:35.177Z,784.00
2023-05-19T00:53:35.240Z,791.00
2023-05-19T00:54:35.262Z,792.00
2023-05-19T00:55:35.321Z,798.00
2023-05-19T00:56:35.334Z,799.00
2023-05-19T00:57:35.306Z,804.00
2023-05-19T00:58:35.281Z,810.00
2023-05-19T00:59:35.297Z,813.00
2023-05-19T01:00:35.506Z,813.00
2023-05-19T01:01:35.414Z,808.00
2023-05-19T01:02:35.451Z,808.00
2023-05-19T01:03:35.728Z,810.00
2023-05-19T01:04:35.333Z,806.00
2023-05-19T01:05:35.320Z,808.00
2023-05-19T01:06:35.333Z,812.00
2023-05-19T01:07:35.321Z,811.00
2023-05-19T01:08:35.299Z,802.00
2023-05-19T01:09:35.347Z,815.00
2023-05-19T01:10:35.314Z,812.00
2023-05-19T01:11:35.339Z,814.00
2023-05-19T01:12:35.352Z,821.00
2023-05-19T01:13:35.313Z,813.00
2023-05-19T01:14:35.332Z,808.00
2023-05-19T01:15:35.348Z,807.00
2023-05-19T01:16:35.435Z,813.00
2023-05-19T01:17:35.398Z,807.00
2023-05-19T01:18:35.393Z,809.00
2023-05-19T01:19:35.402Z,814.00
2023-05-19T01:20:35.402Z,796.00
2023-05-19T01:21:35.428Z,811.00
2023-05-19T01:22:35.420Z,804.00
2023-05-19T01:23:35.410Z,806.00
2023-05-19T01:24:35.436Z,804.00
2023-05-19T01:25:35.445Z,803.00
2023-05-19T01:26:35.415Z,805.00
2023-05-19T01:27:35.464Z,810.00
2023-05-19T01:28:35.412Z,816.00
2023-05-19T01:29:35.419Z,815.00
2023-05-19T01:30:35.524Z,819.00
2023-05-19T01:31:35.449Z,814.00
2023-05-19T01:32:35.479Z,814.00
2023-05-19T01:33:35.437Z,813.00
2023-05-19T01:34:35.427Z,810.00
2023-05-19T01:35:35.434Z,808.00
2023-05-19T01:36:35.431Z,804.00
2023-05-19T01:37:35.477Z,811.00
2023-05-19T01:38:35.466Z,812.00
2023-05-19T01:39:35.516Z,822.00
2023-05-19T01:40:35.484Z,815.00
2023-05-19T01:41:35.484Z,817.00
2023-05-19T01:42:35.516Z,816.00
2023-05-19T01:43:35.524Z,820.00
2023-05-19T01:44:35.530Z,817.00
2023-05-19T01:45:35.538Z,811.00
2023-05-19T01:46:35.822Z,822.00
2023-05-19T01:47:35.544Z,814.00
2023-05-19T01:48:35.533Z,812.00
2023-05-19T01:49:35.524Z,813.00
2023-05-19T01:50:35.527Z,810.00
2023-05-19T01:51:35.520Z,815.00
2023-05-19T01:52:35.543Z,808.00
2023-05-19T01:53:35.521Z,813.00
2023-05-19T01:54:35.543Z,808.00
2023-05-19T01:55:35.537Z,810.00
2023-05-19T01:56:35.536Z,811.00
2023-05-19T01:57:35.519Z,811.00
2023-05-19T01:58:35.502Z,804.00
2023-05-19T01:59:35.540Z,814.00
2023-05-19T02:00:35.523Z,812.00
2023-05-19T02:01:35.565Z,799.00
2023-05-19T02:02:35.624Z,795.00
2023-05-19T02:03:35.518Z,804.00
2023-05-19T02:04:35.547Z,807.00
2023-05-19T02:05:35.561Z,813.00
2023-05-19T02:06:35.559Z,819.00
2023-05-19T02:07:35.544Z,811.00
2023-05-19T02:08:35.534Z,813.00
2023-05-19T02:09:35.529Z,816.00
2023-05-19T02:10:35.534Z,818.00
2023-05-19T02:11:35.525Z,814.00
2023-05-19T02:12:35.536Z,822.00
2023-05-19T02:13:35.543Z,818.00
2023-05-19T02:14:35.552Z,818.00
2023-05-19T02:15:35.557Z,818.00
2023-05-19T02:16:35.546Z,815.00
2023-05-19T02:17:35.596Z,817.00
2023-05-19T02:18:35.580Z,829.00
2023-05-19T02:19:35.585Z,830.00
2023-05-19T02:20:35.661Z,831.00
2023-05-19T02:21:35.612Z,833.00
2023-05-19T02:22:35.618Z,822.00
2023-05-19T02:23:35.621Z,834.00
2023-05-19T02:24:35.608Z,832.00
2023-05-19T02:25:35.621Z,833.00
2023-05-19T02:26:35.636Z,829.00
2023-05-19T02:27:35.616Z,842.00
2023-05-19T02:28:35.630Z,838.00
2023-05-19T02:29:35.657Z,847.00
2023-05-19T02:30:35.668Z,850.00
2023-05-19T02:31:35.728Z,849.00
2023-05-19T02:32:35.700Z,856.00
2023-05-19T02:33:35.673Z,851.00
2023-05-19T02:34:35.689Z,853.00
2023-05-19T02:35:35.743Z,844.00
2023-05-19T02:36:35.715Z,860.00
2023-05-19T02:37:35.748Z,859.00
2023-05-19T02:38:35.711Z,851.00
2023-05-19T02:39:35.727Z,846.00
2023-05-19T02:40:35.713Z,854.00
2023-05-19T02:41:35.758Z,856.00
2023-05-19T02:42:35.765Z,862.00
2023-05-19T02:43:35.794Z,866.00
2023-05-19T02:44:35.804Z,856.00
2023-05-19T02:45:35.827Z,862.00
2023-05-19T02:46:35.878Z,865.00
2023-05-19T02:47:37.090Z,872.00
2023-05-19T02:48:35.856Z,867.00
2023-05-19T02:49:35.985Z,871.00
2023-05-19T02:50:35.868Z,872.00
2023-05-19T02:51:35.891Z,880.00
2023-05-19T02:52:35.962Z,893.00
2023-05-19T02:53:35.944Z,884.00
2023-05-19T02:54:35.966Z,882.00
2023-05-19T02:55:36.003Z,889.00
2023-05-19T02:56:36.017Z,894.00
2023-05-19T02:57:36.078Z,893.00
2023-05-19T02:58:36.024Z,902.00
2023-05-19T02:59:36.069Z,907.00
2023-05-19T03:00:36.081Z,922.00
2023-05-19T03:01:36.197Z,931.00
2023-05-19T03:02:36.223Z,923.00
2023-05-19T03:03:36.294Z,929.00
2023-05-19T03:04:36.189Z,939.00
2023-05-19T03:05:36.206Z,936.00
2023-05-19T03:06:36.238Z,941.00
2023-05-19T03:07:36.254Z,941.00
2023-05-19T03:08:36.281Z,951.00
2023-05-19T03:09:36.305Z,950.00
2023-05-19T03:10:36.323Z,956.00
2023-05-19T03:11:36.354Z,954.00
2023-05-19T03:12:36.349Z,963.00
2023-05-19T03:13:36.364Z,964.00
2023-05-19T03:14:36.363Z,967.00
2023-05-19T03:15:36.401Z,970.00
2023-05-19T03:16:36.518Z,977.00
2023-05-19T03:17:36.533Z,985.00
2023-05-19T03:18:36.534Z,984.00
2023-05-19T03:19:36.454Z,991.00
2023-05-19T03:20:36.515Z,995.00
2023-05-19T03:21:36.549Z,1000.00
2023-05-19T03:22:36.549Z,991.00
2023-05-19T03:23:36.590Z,994.00
2023-05-19T03:24:36.624Z,1006.00
2023-05-19T03:25:36.691Z,999.00
2023-05-19T03:26:36.724Z,1000.00
2023-05-19T03:27:36.751Z,1004.00
2023-05-19T03:28:36.814Z,999.00
2023-05-19T03:29:36.871Z,1011.00
2023-05-19T03:30:36.941Z,1002.00
2023-05-19T03:31:36.992Z,1008.00
2023-05-19T03:32:37.075Z,997.00
2023-05-19T03:33:37.052Z,1001.00
2023-05-19T03:34:37.074Z,998.00
2023-05-19T03:35:37.111Z,992.00
2023-05-19T03:36:37.181Z,990.00
2023-05-19T03:37:37.189Z,997.00
2023-05-19T03:38:37.257Z,993.00
2023-05-19T03:39:37.293Z,1004.00
2023-05-19T03:40:37.374Z,1007.00
2023-05-19T03:41:37.399Z,1021.00
2023-05-19T03:42:37.429Z,1008.00
2023-05-19T03:43:37.469Z,1023.00
2023-05-19T03:44:37.527Z,1020.00
2023-05-19T03:45:37.650Z,1026.00
2023-05-19T03:46:37.665Z,1032.00
2023-05-19T03:47:37.728Z,1035.00
2023-05-19T03:48:37.758Z,1029.00
2023-05-19T03:49:37.777Z,1027.00
2023-05-19T03:50:37.836Z,1028.00
2023-05-19T03:51:37.911Z,1035.00
2023-05-19T03:52:37.927Z,1026.00
2023-05-19T03:53:37.980Z,1028.00
2023-05-19T03:54:38.037Z,1035.00
2023-05-19T03:55:38.067Z,1034.00
2023-05-19T03:56:38.112Z,1030.00
2023-05-19T03:57:38.114Z,1036.00
2023-05-19T03:58:38.161Z,1035.00
2023-05-19T03:59:38.182Z,1044.00
2023-05-19T04:00:38.182Z,1036.00
2023-05-19T04:01:38.268Z,1046.00
2023-05-19T04:02:38.398Z,1037.00
2023-05-19T04:03:38.311Z,1049.00
2023-05-19T04:04:38.305Z,1040.00
2023-05-19T04:05:38.317Z,1043.00
2023-05-19T04:06:38.341Z,1044.00
2023-05-19T04:07:38.313Z,1053.00
2023-05-19T04:08:38.379Z,1055.00
2023-05-19T04:09:38.414Z,1053.00
2023-05-19T04:10:38.427Z,1056.00
2023-05-19T04:11:38.455Z,1043.00
2023-05-19T04:12:38.443Z,1054.00
2023-05-19T04:13:38.528Z,1061.00
2023-05-19T04:14:38.544Z,1054.00
2023-05-19T04:15:38.576Z,1059.00
2023-05-19T04:16:38.595Z,1058.00
2023-05-19T04:17:38.664Z,1060.00
2023-05-19T04:18:38.684Z,1067.00
2023-05-19T04:19:38.686Z,1070.00
2023-05-19T04:20:38.724Z,1077.00
2023-05-19T04:21:38.715Z,1079.00
2023-05-19T04:22:38.732Z,1084.00
2023-05-19T04:23:38.778Z,1100.00
2023-05-19T04:24:38.887Z,1096.00
2023-05-19T04:25:38.812Z,1110.00
2023-05-19T04:26:38.851Z,1115.00
2023-05-19T04:27:38.931Z,1124.00
2023-05-19T04:28:38.868Z,1125.00
2023-05-19T04:29:38.865Z,1125.00
2023-05-19T04:30:38.920Z,1139.00
2023-05-19T04:31:38.990Z,1133.00
2023-05-19T04:32:38.991Z,1143.00
2023-05-19T04:33:39.008Z,1154.00
2023-05-19T04:34:39.017Z,1160.00
2023-05-19T04:35:39.063Z,1165.00
2023-05-19T04:36:39.062Z,1168.00
2023-05-19T04:37:39.127Z,1174.00
2023-05-19T04:38:39.133Z,1172.00
2023-05-19T04:39:39.161Z,1168.00
2023-05-19T04:40:39.192Z,1167.00
2023-05-19T04:41:39.312Z,1162.00
2023-05-19T04:42:39.232Z,1150.00
2023-05-19T04:43:39.234Z,1161.00
2023-05-19T04:44:39.306Z,1158.00
2023-05-19T04:45:39.290Z,1166.00
2023-05-19T04:46:39.344Z,1169.00
2023-05-19T04:47:39.393Z,1185.00
2023-05-19T04:48:39.386Z,1187.00
2023-05-19T04:49:39.439Z,1192.00
2023-05-19T04:50:39.475Z,1205.00
2023-05-19T04:51:39.491Z,1207.00
2023-05-19T04:52:39.545Z,1222.00
2023-05-19T04:53:39.579Z,1235.00
2023-05-19T04:54:39.631Z,1260.00
2023-05-19T04:55:39.660Z,1271.00
2023-05-19T04:56:39.718Z,1283.00
2023-05-19T04:57:39.741Z,1291.00
2023-05-19T04:58:41.905Z,1297.00
2023-05-19T04:59:39.843Z,1298.00
2023-05-19T05:00:39.916Z,1299.00
2023-05-19T05:01:40.030Z,1294.00
2023-05-19T05:02:40.009Z,1293.00
2023-05-19T05:03:40.096Z,1301.00
2023-05-19T05:04:40.015Z,1316.00
2023-05-19T05:05:40.049Z,1309.00
2023-05-19T05:06:40.053Z,1315.00
2023-05-19T05:07:40.075Z,1313.00
2023-05-19T05:08:40.138Z,1301.00
2023-05-19T05:09:40.156Z,1305.00
2023-05-19T05:10:40.149Z,1300.00
2023-05-19T05:11:40.158Z,1300.00
2023-05-19T05:12:40.181Z,1304.00
2023-05-19T05:13:40.204Z,1298.00
2023-05-19T05:14:40.319Z,1304.00
2023-05-19T05:15:40.249Z,1300.00
2023-05-19T05:16:40.341Z,1298.00
2023-05-19T05:17:40.284Z,1310.00
2023-05-19T05:18:42.222Z,1305.00
2023-05-19T05:19:40.281Z,1306.00
2023-05-19T05:20:40.296Z,1304.00
2023-05-19T05:21:40.373Z,1306.00
2023-05-19T05:22:40.266Z,1310.00
2023-05-19T05:23:40.254Z,1309.00
2023-05-19T05:24:40.276Z,1304.00
2023-05-19T05:25:40.231Z,1296.00
2023-05-19T05:26:40.224Z,1297.00
2023-05-19T05:27:40.205Z,1290.00
2023-05-19T05:28:40.190Z,1285.00
2023-05-19T05:29:40.201Z,1270.00
2023-05-19T05:30:40.183Z,1265.00
2023-05-19T05:31:40.185Z,1266.00
2023-05-19T05:32:40.265Z,1259.00
2023-05-19T05:33:40.181Z,1260.00
2023-05-19T05:34:40.145Z,1259.00
2023-05-19T05:35:40.142Z,1264.00
2023-05-19T05:36:40.140Z,1265.00
2023-05-19T05:37:40.148Z,1259.00
2023-05-19T05:38:40.150Z,1261.00
2023-05-19T05:39:40.137Z,1273.00
2023-05-19T05:40:40.137Z,1274.00
2023-05-19T05:41:40.156Z,1279.00
2023-05-19T05:42:40.103Z,1271.00
2023-05-19T05:43:40.101Z,1281.00
2023-05-19T05:44:40.101Z,1278.00
2023-05-19T05:45:40.121Z,1278.00
2023-05-19T05:46:40.063Z,1290.00
2023-05-19T05:47:40.112Z,1297.00
2023-05-19T05:48:40.058Z,1289.00
2023-05-19T05:49:40.072Z,1298.00
2023-05-19T05:50:40.052Z,1293.00
2023-05-19T05:51:40.710Z,1308.00
2023-05-19T05:52:40.052Z,1310.00
2023-05-19T05:53:40.008Z,1307.00
2023-05-19T05:54:40.025Z,1306.00
2023-05-19T05:55:39.996Z,1302.00
2023-05-19T05:56:40.019Z,1306.00
2023-05-19T05:57:39.997Z,1303.00
2023-05-19T05:58:40.010Z,1307.00
2023-05-19T05:59:39.994Z,1312.00
2023-05-19T06:00:39.965Z,1307.00
2023-05-19T06:01:39.977Z,1321.00
2023-05-19T06:02:40.082Z,1315.00
2023-05-19T06:03:40.104Z,1322.00
2023-05-19T06:04:39.941Z,1316.00
2023-05-19T06:05:40.008Z,1321.00
2023-05-19T06:06:39.944Z,1310.00
2023-05-19T06:07:39.940Z,1316.00
2023-05-19T06:08:39.936Z,1318.00
2023-05-19T06:09:39.924Z,1328.00
2023-05-19T06:10:39.952Z,1324.00
2023-05-19T06:11:39.924Z,1324.00
2023-05-19T06:12:39.865Z,1325.00
2023-05-19T06:13:39.900Z,1323.00
2023-05-19T06:14:39.899Z,1325.00
2023-05-19T06:15:39.910Z,1325.00
2023-05-19T06:16:40.024Z,1325.00
2023-05-19T06:17:39.894Z,1338.00
2023-05-19T06:18:39.882Z,1345.00
2023-05-19T06:19:39.865Z,1353.00
2023-05-19T06:20:39.832Z,1358.00
2023-05-19T06:21:39.835Z,1353.00
2023-05-19T06:22:39.817Z,1358.00
2023-05-19T06:23:39.796Z,1359.00
2023-05-19T06:24:39.814Z,1362.00
2023-05-19T06:25:39.779Z,1365.00
2023-05-19T06:26:39.807Z,1364.00
2023-05-19T06:27:39.790Z,1357.00
2023-05-19T06:28:39.765Z,1363.00
2023-05-19T06:29:39.762Z,1363.00
2023-05-19T06:30:39.752Z,1367.00
2023-05-19T06:31:39.789Z,1361.00
2023-05-19T06:32:39.767Z,1362.00
2023-05-19T06:33:39.755Z,1347.00
2023-05-19T06:34:39.717Z,1350.00
2023-05-19T06:35:39.741Z,1349.00
2023-05-19T06:36:39.728Z,1341.00
2023-05-19T06:37:39.681Z,1339.00
2023-05-19T06:38:39.691Z,1335.00
2023-05-19T06:39:39.699Z,1329.00
2023-05-19T06:40:39.676Z,1335.00
2023-05-19T06:41:39.689Z,1335.00
2023-05-19T06:42:39.670Z,1338.00
2023-05-19T06:43:39.675Z,1337.00
2023-05-19T06:44:39.674Z,1333.00
2023-05-19T06:45:39.722Z,1341.00
2023-05-19T06:46:39.725Z,1345.00
2023-05-19T06:47:39.692Z,1347.00
2023-05-19T06:48:39.681Z,1340.00
2023-05-19T06:49:39.680Z,1336.00
2023-05-19T06:50:39.665Z,1327.00
2023-05-19T06:51:39.705Z,1325.00
2023-05-19T06:52:39.732Z,1322.00
2023-05-19T06:53:39.712Z,1324.00
2023-05-19T06:54:39.716Z,1324.00
2023-05-19T06:55:50.678Z,1320.00
2023-05-19T06:56:40.748Z,1321.00
2023-05-19T06:57:39.722Z,1321.00
2023-05-19T06:58:39.724Z,1321.00
2023-05-19T06:59:39.732Z,1315.00
2023-05-19T07:00:39.678Z,1310.00
2023-05-19T07:01:39.824Z,1304.00
2023-05-19T07:02:39.726Z,1304.00
2023-05-19T07:03:39.744Z,1309.00
2023-05-19T07:04:39.677Z,1308.00
2023-05-19T07:05:39.652Z,1302.00
2023-05-19T07:06:39.633Z,1298.00
2023-05-19T07:07:39.626Z,1287.00
2023-05-19T07:08:39.633Z,1265.00
2023-05-19T07:09:39.659Z,1254.00
2023-05-19T07:10:39.670Z,1240.00
2023-05-19T07:11:39.757Z,1237.00
2023-05-19T07:12:39.757Z,1226.00
2023-05-19T07:13:39.821Z,1228.00
2023-05-19T07:14:39.835Z,1231.00
2023-05-19T07:15:39.856Z,1220.00
2023-05-19T07:16:39.933Z,1222.00
2023-05-19T07:17:39.891Z,1216.00
2023-05-19T07:18:39.931Z,1217.00
2023-05-19T07:19:39.845Z,1223.00
2023-05-19T07:20:39.835Z,1233.00
2023-05-19T07:21:39.885Z,1233.00
2023-05-19T07:22:40.006Z,1236.00
2023-05-19T07:23:39.868Z,1237.00
2023-05-19T07:24:39.877Z,1237.00
2023-05-19T07:25:39.825Z,1242.00
2023-05-19T07:26:39.848Z,1241.00
2023-05-19T07:27:39.889Z,1237.00
2023-05-19T07:28:41.600Z,1238.00
2023-05-19T07:29:39.951Z,1232.00
2023-05-19T07:30:39.967Z,1230.00
2023-05-19T07:31:40.045Z,1240.00
2023-05-19T07:32:40.081Z,1238.00
2023-05-19T07:33:40.071Z,1245.00
2023-05-19T07:34:40.128Z,1250.00
2023-05-19T07:35:40.136Z,1242.00
2023-05-19T07:36:40.163Z,1240.00
2023-05-19T07:37:40.133Z,1241.00
2023-05-19T07:38:40.188Z,1244.00
2023-05-19T07:39:40.183Z,1243.00
2023-05-19T07:40:40.179Z,1234.00
2023-05-19T07:41:40.164Z,1236.00
2023-05-19T07:42:40.196Z,1245.00
2023-05-19T07:43:40.291Z,1242.00
2023-05-19T07:44:40.262Z,1248.00
2023-05-19T07:45:40.446Z,1244.00
2023-05-19T07:46:40.400Z,1240.00
2023-05-19T07:47:40.456Z,1244.00
2023-05-19T07:48:40.496Z,1247.00
2023-05-19T07:49:40.574Z,1243.00
2023-05-19T07:50:40.578Z,1245.00
2023-05-19T07:51:40.620Z,1245.00
2023-05-19T07:52:40.632Z,1251.00
2023-05-19T07:53:40.647Z,1250.00
2023-05-19T07:54:40.639Z,1251.00
2023-05-19T07:55:40.658Z,1253.00
2023-05-19T07:56:40.660Z,1259.00
2023-05-19T07:57:40.659Z,1254.00
2023-05-19T07:58:40.661Z,1251.00
2023-05-19T07:59:40.738Z,1245.00
2023-05-19T08:00:40.668Z,1241.00
2023-05-19T08:01:40.677Z,1245.00
2023-05-19T08:02:40.740Z,1253.00
2023-05-19T08:03:40.727Z,1248.00
2023-05-19T08:04:40.730Z,1251.00
2023-05-19T08:05:40.748Z,1253.00
2023-05-19T08:06:40.714Z,1255.00
2023-05-19T08:07:40.759Z,1255.00
2023-05-19T08:08:40.780Z,1265.00
2023-05-19T08:09:40.780Z,1260.00
2023-05-19T08:10:40.802Z,1257.00
2023-05-19T08:11:40.845Z,1262.00
2023-05-19T08:12:40.874Z,1257.00
2023-05-19T08:13:40.917Z,1258.00
2023-05-19T08:14:40.975Z,1257.00
2023-05-19T08:15:41.083Z,1262.00
2023-05-19T08:16:41.052Z,1261.00
2023-05-19T08:17:41.149Z,1260.00
2023-05-19T08:18:41.142Z,1266.00
2023-05-19T08:19:41.157Z,1268.00
2023-05-19T08:20:41.253Z,1272.00
2023-05-19T08:21:41.302Z,1263.00
2023-05-19T08:22:41.355Z,1271.00
2023-05-19T08:23:41.385Z,1267.00
2023-05-19T08:24:41.444Z,1262.00
2023-05-19T08:25:41.481Z,1261.00
2023-05-19T08:26:41.512Z,1260.00
2023-05-19T08:27:41.575Z,1263.00
2023-05-19T08:28:42.192Z,1268.00
2023-05-19T08:29:41.639Z,1257.00
2023-05-19T08:30:41.689Z,1258.00
2023-05-19T08:31:41.858Z,1253.00
2023-05-19T08:32:41.867Z,1239.00
2023-05-19T08:33:41.829Z,1221.00
2023-05-19T08:34:41.897Z,1215.00
2023-05-19T08:35:41.892Z,1216.00
2023-05-19T08:36:41.934Z,1219.00
2023-05-19T08:37:41.939Z,1219.00
2023-05-19T08:38:41.974Z,1215.00
2023-05-19T08:39:41.994Z,1225.00
2023-05-19T08:40:42.070Z,1223.00
2023-05-19T08:41:42.096Z,1217.00
2023-05-19T08:42:42.116Z,1220.00
2023-05-19T08:43:42.177Z,1215.00
2023-05-19T08:44:42.242Z,1213.00
2023-05-19T08:45:42.242Z,1200.00
2023-05-19T08:46:42.318Z,1205.00
2023-05-19T08:47:42.270Z,1203.00
2023-05-19T08:48:42.277Z,1192.00
2023-05-19T08:49:42.402Z,1184.00
2023-05-19T08:50:42.333Z,1181.00
2023-05-19T08:51:42.373Z,1177.00
2023-05-19T08:52:42.384Z,1183.00
2023-05-19T08:53:42.399Z,1187.00
2023-05-19T08:54:42.372Z,1190.00
2023-05-19T08:55:42.430Z,1201.00
2023-05-19T08:56:42.437Z,1197.00
2023-05-19T08:57:42.491Z,1203.00
2023-05-19T08:58:42.479Z,1208.00
2023-05-19T08:59:42.502Z,1214.00
2023-05-19T09:00:42.550Z,1221.00
2023-05-19T09:01:42.543Z,1222.00
2023-05-19T09:02:50.620Z,1225.00
2023-05-19T09:03:43.646Z,1226.00
2023-05-19T09:04:42.611Z,1227.00
2023-05-19T09:05:42.576Z,1230.00
2023-05-19T09:06:42.565Z,1238.00
2023-05-19T09:07:42.508Z,1253.00
2023-05-19T09:08:42.594Z,1257.00
2023-05-19T09:09:42.507Z,1259.00
2023-05-19T09:10:42.493Z,1264.00
2023-05-19T09:11:42.504Z,1267.00
2023-05-19T09:12:42.478Z,1277.00
2023-05-19T09:13:42.479Z,1269.00
2023-05-19T09:14:42.444Z,1277.00
2023-05-19T09:15:42.468Z,1279.00
2023-05-19T09:16:42.474Z,1282.00
2023-05-19T09:17:42.484Z,1282.00
2023-05-19T09:18:42.505Z,1286.00
2023-05-19T09:19:42.418Z,1283.00
2023-05-19T09:20:42.456Z,1285.00
2023-05-19T09:21:43.608Z,1284.00
2023-05-19T09:22:42.460Z,1286.00
2023-05-19T09:23:42.476Z,1285.00
2023-05-19T09:24:42.499Z,1281.00
2023-05-19T09:25:42.523Z,1284.00
2023-05-19T09:26:42.526Z,1281.00
2023-05-19T09:27:42.526Z,1283.00
2023-05-19T09:28:42.538Z,1272.00
2023-05-19T09:29:42.583Z,1261.00
2023-05-19T09:30:42.613Z,1262.00
2023-05-19T09:31:42.654Z,1261.00
2023-05-19T09:32:43.560Z,1245.00
2023-05-19T09:33:45.264Z,1237.00
2023-05-19T09:34:42.656Z,1247.00
2023-05-19T09:35:42.589Z,1239.00
2023-05-19T09:36:42.618Z,1235.00
2023-05-19T09:37:42.698Z,1230.00
2023-05-19T09:38:42.576Z,1219.00
2023-05-19T09:39:42.592Z,1207.00
2023-05-19T09:40:42.571Z,1207.00
2023-05-19T09:41:42.571Z,1214.00
2023-05-19T09:42:42.545Z,1210.00
2023-05-19T09:43:42.566Z,1220.00
2023-05-19T09:44:42.506Z,1216.00
2023-05-19T09:45:42.568Z,1216.00
2023-05-19T09:46:42.652Z,1222.00
2023-05-19T09:47:42.580Z,1213.00
2023-05-19T09:48:42.588Z,1218.00
2023-05-19T09:49:42.509Z,1206.00
2023-05-19T09:50:42.498Z,1198.00
2023-05-19T09:51:42.486Z,1193.00
2023-05-19T09:52:42.486Z,1195.00
2023-05-19T09:53:42.525Z,1184.00
2023-05-19T09:54:42.464Z,1179.00
2023-05-19T09:55:42.460Z,1193.00
2023-05-19T09:56:42.466Z,1179.00
2023-05-19T09:57:42.450Z,1184.00
2023-05-19T09:58:42.428Z,1186.00
2023-05-19T09:59:42.446Z,1184.00
2023-05-19T10:00:42.427Z,1175.00
2023-05-19T10:01:42.508Z,1172.00
2023-05-19T10:02:42.474Z,1175.00
2023-05-19T10:03:42.408Z,1179.00
2023-05-19T10:04:42.438Z,1178.00
2023-05-19T10:05:42.414Z,1179.00
2023-05-19T10:06:42.404Z,1178.00
2023-05-19T10:07:42.362Z,1159.00
2023-05-19T10:08:42.453Z,1164.00
2023-05-19T10:09:42.382Z,1161.00
2023-05-19T10:10:42.342Z,1148.00
2023-05-19T10:11:42.339Z,1142.00
2023-05-19T10:12:42.372Z,1142.00
2023-05-19T10:13:42.346Z,1130.00
2023-05-19T10:14:42.367Z,1125.00
2023-05-19T10:15:57.366Z,1129.00
2023-05-19T10:16:43.329Z,1129.00
2023-05-19T10:17:42.328Z,1128.00
2023-05-19T10:18:42.335Z,1129.00
2023-05-19T10:19:42.297Z,1122.00
2023-05-19T10:20:42.277Z,1109.00
2023-05-19T10:21:42.285Z,1111.00
2023-05-19T10:22:42.253Z,1101.00
2023-05-19T10:23:42.241Z,1095.00
2023-05-19T10:24:42.270Z,1078.00
2023-05-19T10:25:42.254Z,1067.00
2023-05-19T10:26:42.276Z,1068.00
2023-05-19T10:27:42.220Z,1070.00
2023-05-19T10:28:42.234Z,1089.00
2023-05-19T10:29:42.245Z,1089.00
2023-05-19T10:30:42.219Z,1105.00
2023-05-19T10:31:42.258Z,1105.00
2023-05-19T10:32:42.234Z,1111.00
2023-05-19T10:33:42.200Z,1106.00
2023-05-19T10:34:42.220Z,1110.00
2023-05-19T10:35:42.232Z,1121.00
2023-05-19T10:36:42.250Z,1124.00
2023-05-19T10:37:42.273Z,1130.00
2023-05-19T10:38:42.363Z,1130.00
2023-05-19T10:39:42.428Z,1122.00
2023-05-19T10:40:42.471Z,1139.00
2023-05-19T10:41:42.787Z,1136.00
2023-05-19T10:42:42.595Z,1136.00
2023-05-19T10:43:42.665Z,1148.00
2023-05-19T10:44:42.720Z,1149.00
2023-05-19T10:45:42.782Z,1155.00
2023-05-19T10:46:42.924Z,1145.00
2023-05-19T10:47:42.923Z,1157.00
2023-05-19T10:48:42.984Z,1147.00
2023-05-19T10:49:43.032Z,1155.00
2023-05-19T10:50:43.086Z,1148.00
2023-05-19T10:51:43.160Z,1149.00
2023-05-19T10:52:43.214Z,1150.00
2023-05-19T10:53:43.248Z,1159.00
2023-05-19T10:54:43.429Z,1167.00
2023-05-19T10:55:43.380Z,1173.00
2023-05-19T10:56:43.502Z,1167.00
2023-05-19T10:57:43.520Z,1165.00
2023-05-19T10:58:43.637Z,1172.00
2023-05-19T10:59:43.636Z,1167.00
2023-05-19T11:00:43.714Z,1177.00
2023-05-19T11:01:43.821Z,1174.00
2023-05-19T11:02:43.912Z,1173.00
2023-05-19T11:03:43.920Z,1172.00
2023-05-19T11:04:43.925Z,1169.00
2023-05-19T11:05:43.994Z,1172.00
2023-05-19T11:06:44.081Z,1176.00
2023-05-19T11:07:44.093Z,1176.00
2023-05-19T11:08:44.159Z,1173.00
2023-05-19T11:09:44.231Z,1180.00
2023-05-19T11:10:44.309Z,1153.00
2023-05-19T11:11:45.252Z,1157.00
2023-05-19T11:12:44.360Z,1149.00
2023-05-19T11:13:44.415Z,1137.00
2023-05-19T11:14:45.269Z,1127.00
2023-05-19T11:15:44.503Z,1122.00
2023-05-19T11:16:44.548Z,1119.00
2023-05-19T11:17:44.620Z,1117.00
2023-05-19T11:18:44.627Z,1120.00
2023-05-19T11:19:44.689Z,1112.00
2023-05-19T11:20:44.732Z,1116.00
2023-05-19T11:21:44.774Z,1106.00
2023-05-19T11:22:44.808Z,1100.00
2023-05-19T11:23:44.830Z,1119.00
2023-05-19T11:24:44.851Z,1114.00
2023-05-19T11:25:44.880Z,1116.00
2023-05-19T11:26:44.933Z,1115.00
2023-05-19T11:27:44.921Z,1108.00
2023-05-19T11:28:44.963Z,1108.00
2023-05-19T11:29:45.017Z,1117.00
2023-05-19T11:30:45.048Z,1117.00
2023-05-19T11:31:45.240Z,1129.00
2023-05-19T11:32:45.196Z,1128.00
2023-05-19T11:33:45.203Z,1150.00
2023-05-19T11:34:45.222Z,1138.00
2023-05-19T11:35:45.293Z,1142.00
2023-05-19T11:36:45.363Z,1148.00
2023-05-19T11:37:45.377Z,1163.00
2023-05-19T11:38:45.427Z,1161.00
2023-05-19T11:39:45.484Z,1166.00
2023-05-19T11:40:45.480Z,1160.00
2023-05-19T11:41:45.533Z,1168.00
2023-05-19T11:42:45.587Z,1157.00
2023-05-19T11:43:45.647Z,1172.00
2023-05-19T11:44:45.662Z,1171.00
2023-05-19T11:45:45.771Z,1173.00
2023-05-19T11:46:45.817Z,1170.00
2023-05-19T11:48:00.858Z,1168.00
2023-05-19T11:48:46.836Z,1168.00
2023-05-19T11:49:45.711Z,1169.00
2023-05-19T11:50:45.736Z,1169.00
2023-05-19T11:51:45.697Z,1160.00
2023-05-19T11:52:45.735Z,1160.00
2023-05-19T11:53:45.697Z,1144.00
2023-05-19T11:54:45.706Z,1146.00
2023-05-19T11:55:46.044Z,1147.00
2023-05-19T11:56:45.669Z,1149.00
2023-05-19T11:57:56.091Z,1140.00
2023-05-19T11:58:46.683Z,1140.00
2023-05-19T11:59:45.810Z,1133.00
2023-05-19T12:00:45.681Z,1140.00
2023-05-19T12:01:45.660Z,1128.00
2023-05-19T12:02:45.805Z,1126.00
2023-05-19T12:03:45.799Z,1135.00
2023-05-19T12:04:45.705Z,1149.00
2023-05-19T12:05:46.037Z,1139.00
2023-05-19T12:06:45.669Z,1125.00
2023-05-19T12:07:45.599Z,1110.00
2023-05-19T12:08:45.606Z,1121.00
2023-05-19T12:09:45.587Z,1115.00
2023-05-19T12:10:45.599Z,1114.00
2023-05-19T12:11:45.591Z,1112.00
2023-05-19T12:12:45.558Z,1119.00